createdAt,value
2022-08-05T00:00:30.662Z,67.87
2022-08-05T00:01:29.698Z,67.97
2022-08-05T00:02:30.694Z,68.76
2022-08-05T00:03:29.594Z,69.06
2022-08-05T00:04:29.611Z,69.59
2022-08-05T00:06:05.122Z,71.18
2022-08-05T00:06:33.193Z,71.68
2022-08-05T00:08:00.232Z,72.97
2022-08-05T00:08:34.642Z,74.37
2022-08-05T00:09:29.536Z,76.98
2022-08-05T00:10:29.616Z,75.63
2022-08-05T00:11:34.543Z,76.23
2022-08-05T00:12:30.502Z,78.02
2022-08-05T00:13:39.024Z,78.65
2022-08-05T00:14:31.542Z,80.24
2022-08-05T00:15:55.227Z,80.78
2022-08-05T00:16:36.199Z,81.98
2022-08-05T00:17:30.750Z,81.08
2022-08-05T00:18:29.454Z,81.52
2022-08-05T00:19:33.295Z,81.92
2022-08-05T00:20:29.398Z,82.02
2022-08-05T00:21:30.711Z,83.01
2022-08-05T00:22:29.366Z,84.41
2022-08-05T00:23:44.812Z,85.11
2022-08-05T00:24:31.193Z,84.75
2022-08-05T00:25:45.619Z,84.55
2022-08-05T00:26:30.296Z,84.15
2022-08-05T00:27:36.482Z,84.55
2022-08-05T00:28:30.286Z,83.85
2022-08-05T00:29:37.640Z,82.75
2022-08-05T00:30:32.019Z,83.55
2022-08-05T00:31:41.373Z,84.95
2022-08-05T00:32:30.255Z,85.55
2022-08-05T00:34:53.875Z,84.99
2022-08-05T00:34:56.488Z,85.69
2022-08-05T00:35:33.147Z,86.19
2022-08-05T00:37:09.764Z,85.58
2022-08-05T00:37:51.002Z,86.58
2022-08-05T00:38:33.936Z,85.88
2022-08-05T00:39:29.192Z,85.33
2022-08-05T00:40:30.312Z,86.82
2022-08-05T00:41:29.147Z,87.62
2022-08-05T00:42:31.603Z,86.72
2022-08-05T00:43:29.089Z,86.33
2022-08-05T00:44:30.841Z,85.88
2022-08-05T00:45:39.009Z,86.19
2022-08-05T00:46:42.698Z,87.18
2022-08-05T00:47:53.160Z,86.38
2022-08-05T00:48:31.609Z,86.58
2022-08-05T00:49:32.559Z,87.28
2022-08-05T00:50:29.009Z,87.08
2022-08-05T00:51:51.640Z,86.38
2022-08-05T00:52:29.968Z,86.38
2022-08-05T00:54:01.431Z,85.69
2022-08-05T00:54:30.300Z,85.58
2022-08-05T00:55:42.202Z,86.38
2022-08-05T00:56:29.921Z,86.08
2022-08-05T00:57:38.143Z,86.19
2022-08-05T00:58:29.899Z,85.69
2022-08-05T00:59:44.147Z,85.88
2022-08-05T01:00:29.890Z,86.19
2022-08-05T01:01:43.008Z,86.19
2022-08-05T01:02:29.833Z,86.29
2022-08-05T01:03:31.119Z,86.52
2022-08-05T01:04:29.939Z,86.43
2022-08-05T01:05:28.821Z,86.82
2022-08-05T01:06:32.543Z,87.02
2022-08-05T01:07:31.610Z,87.42
2022-08-05T01:08:42.110Z,87.16
2022-08-05T01:09:30.521Z,87.46
2022-08-05T01:10:28.724Z,87.66
2022-08-05T01:11:33.446Z,87.57
2022-08-05T01:12:29.979Z,87.37
2022-08-05T01:13:58.861Z,87.96
2022-08-05T01:14:29.695Z,87.96
2022-08-05T01:15:36.382Z,86.87
2022-08-05T01:16:29.644Z,86.57
2022-08-05T01:17:28.637Z,86.87
2022-08-05T01:18:28.615Z,85.67
2022-08-05T01:19:46.238Z,85.81
2022-08-05T01:20:29.646Z,86.91
2022-08-05T01:21:38.139Z,87.51
2022-08-05T01:22:29.568Z,87.57
2022-08-05T01:23:34.835Z,87.46
2022-08-05T01:24:30.256Z,86.77
2022-08-05T01:25:40.132Z,87.37
2022-08-05T01:26:29.546Z,86.27
2022-08-05T01:27:28.570Z,85.67
2022-08-05T01:28:28.489Z,84.67
2022-08-05T01:29:28.467Z,85.03
2022-08-05T01:30:33.729Z,85.83
2022-08-05T01:31:29.466Z,86.03
2022-08-05T01:32:28.436Z,85.67
2022-08-05T01:33:28.407Z,86.47
2022-08-05T01:34:29.428Z,86.66
2022-08-05T01:35:50.988Z,87.27
2022-08-05T01:36:29.424Z,87.16
2022-08-05T01:37:28.597Z,87.27
2022-08-05T01:38:30.055Z,87.16
2022-08-05T01:39:46.684Z,87.76
2022-08-05T01:40:29.348Z,87.96
2022-08-05T01:41:28.310Z,88.26
2022-08-05T01:42:28.308Z,88.46
2022-08-05T01:43:28.290Z,88.76
2022-08-05T01:44:34.195Z,88.81
2022-08-05T01:45:34.976Z,89.31
2022-08-05T01:46:41.926Z,88.60
2022-08-05T01:47:38.679Z,89.01
2022-08-05T01:48:29.230Z,89.11
2022-08-05T01:50:02.296Z,89.20
2022-08-05T01:50:29.658Z,89.51
2022-08-05T01:51:29.410Z,89.70
2022-08-05T01:52:28.170Z,89.81
2022-08-05T01:53:58.047Z,89.90
2022-08-05T01:54:29.159Z,90.20
2022-08-05T01:55:28.130Z,89.61
2022-08-05T01:58:12.156Z,89.81
2022-08-05T01:58:12.156Z,90.00
2022-08-05T01:58:40.416Z,89.31
2022-08-05T01:59:29.091Z,89.20
2022-08-05T02:00:30.541Z,89.40
2022-08-05T02:01:28.074Z,89.81
2022-08-05T02:02:28.699Z,89.70
2022-08-05T02:03:31.830Z,89.20
2022-08-05T02:04:29.012Z,89.20
2022-08-05T02:05:28.725Z,89.70
2022-08-05T02:06:37.284Z,89.61
2022-08-05T02:07:30.476Z,89.81
2022-08-05T02:08:30.910Z,89.90
2022-08-05T02:09:28.156Z,89.61
2022-08-05T02:10:28.690Z,90.00
2022-08-05T02:11:33.313Z,89.51
2022-08-05T02:12:28.914Z,89.70
2022-08-05T02:13:27.893Z,89.90
2022-08-05T02:14:28.880Z,89.61
2022-08-05T02:15:33.510Z,89.11
2022-08-05T02:16:28.847Z,88.60
2022-08-05T02:18:28.317Z,88.60
2022-08-05T02:18:34.494Z,88.95
2022-08-05T02:19:28.818Z,89.15
2022-08-05T02:20:28.814Z,89.61
2022-08-05T02:21:27.784Z,89.55
2022-08-05T02:22:27.775Z,89.25
2022-08-05T02:23:27.774Z,89.15
2022-08-05T02:24:27.747Z,89.05
2022-08-05T02:25:33.079Z,88.75
2022-08-05T02:26:28.724Z,89.35
2022-08-05T02:27:30.123Z,88.95
2022-08-05T02:28:32.963Z,89.19
2022-08-05T02:29:59.674Z,89.59
2022-08-05T02:30:28.685Z,89.99
2022-08-05T02:31:28.341Z,90.09
2022-08-05T02:32:29.458Z,90.19
2022-08-05T02:33:38.472Z,90.29
2022-08-05T02:34:28.617Z,89.69
2022-08-05T02:35:33.345Z,89.49
2022-08-05T02:36:31.375Z,89.39
2022-08-05T02:37:27.576Z,89.19
2022-08-05T02:38:27.566Z,89.19
2022-08-05T02:39:28.602Z,89.19
2022-08-05T02:40:27.670Z,89.49
2022-08-05T02:41:28.583Z,89.69
2022-08-05T02:42:31.935Z,89.89
2022-08-05T02:43:28.487Z,89.49
2022-08-05T02:44:27.487Z,89.89
2022-08-05T02:45:28.539Z,89.69
2022-08-05T02:46:28.475Z,89.69
2022-08-05T02:47:36.541Z,89.85
2022-08-05T02:48:29.112Z,90.15
2022-08-05T02:49:27.408Z,89.95
2022-08-05T02:50:28.407Z,89.45
2022-08-05T02:51:28.403Z,88.75
2022-08-05T02:52:30.491Z,88.55
2022-08-05T02:53:27.362Z,88.31
2022-08-05T02:54:35.602Z,87.91
2022-08-05T02:55:54.046Z,88.21
2022-08-05T02:56:28.347Z,87.61
2022-08-05T02:58:09.384Z,87.41
2022-08-05T02:58:28.959Z,87.81
2022-08-05T02:59:27.774Z,87.91
2022-08-05T03:00:27.269Z,88.10
2022-08-05T03:01:27.387Z,88.40
2022-08-05T03:02:27.672Z,88.31
2022-08-05T03:03:27.231Z,88.60
2022-08-05T03:04:28.220Z,88.40
2022-08-05T03:06:54.363Z,88.31
2022-08-05T03:06:56.096Z,88.01
2022-08-05T03:08:00.736Z,88.05
2022-08-05T03:08:29.820Z,88.35
2022-08-05T03:09:38.336Z,88.55
2022-08-05T03:10:28.141Z,88.35
2022-08-05T03:11:57.217Z,88.35
2022-08-05T03:12:28.119Z,88.25
2022-08-05T03:13:27.710Z,88.45
2022-08-05T03:14:28.092Z,88.69
2022-08-05T03:15:27.072Z,88.79
2022-08-05T03:16:27.089Z,89.19
2022-08-05T03:17:27.054Z,89.64
2022-08-05T03:18:30.100Z,89.64
2022-08-05T03:19:33.834Z,89.83
2022-08-05T03:20:28.006Z,90.59
2022-08-05T03:21:28.763Z,90.39
2022-08-05T03:22:32.599Z,89.83
2022-08-05T03:23:27.952Z,89.83
2022-08-05T03:24:30.028Z,89.83
2022-08-05T03:25:33.821Z,89.64
2022-08-05T03:26:31.769Z,89.94
2022-08-05T03:27:29.518Z,90.23
2022-08-05T03:28:27.903Z,90.33
2022-08-05T03:29:45.459Z,90.23
2022-08-05T03:30:30.236Z,90.44
2022-08-05T03:31:57.242Z,90.73
2022-08-05T03:32:30.746Z,90.94
2022-08-05T03:33:42.207Z,91.03
2022-08-05T03:34:27.816Z,90.94
2022-08-05T03:35:26.814Z,90.73
2022-08-05T03:36:30.448Z,90.83
2022-08-05T03:37:27.015Z,90.88
2022-08-05T03:38:32.868Z,91.08
2022-08-05T03:39:28.020Z,91.24
2022-08-05T03:40:31.983Z,90.73
2022-08-05T03:41:33.240Z,90.33
2022-08-05T03:42:29.145Z,90.53
2022-08-05T03:44:09.830Z,90.44
2022-08-05T03:44:29.075Z,90.44
2022-08-05T03:45:26.688Z,90.33
2022-08-05T03:46:30.024Z,90.33
2022-08-05T03:47:30.433Z,90.53
2022-08-05T03:48:28.938Z,91.24
2022-08-05T03:49:31.117Z,91.63
2022-08-05T03:50:27.615Z,91.53
2022-08-05T03:52:36.908Z,90.63
2022-08-05T03:52:48.553Z,90.44
2022-08-05T03:55:52.915Z,90.94
2022-08-05T03:55:53.477Z,91.33
2022-08-05T03:56:09.904Z,91.33
2022-08-05T03:56:31.908Z,90.23
2022-08-05T03:57:41.855Z,90.33
2022-08-05T03:58:29.058Z,90.33
2022-08-05T03:59:26.490Z,90.53
2022-08-05T04:00:26.478Z,90.83
2022-08-05T04:01:26.501Z,89.94
2022-08-05T04:02:37.771Z,90.23
2022-08-05T04:03:28.845Z,90.03
2022-08-05T04:04:26.629Z,90.03
2022-08-05T04:05:27.986Z,90.44
2022-08-05T04:06:27.408Z,90.89
2022-08-05T04:07:26.400Z,91.29
2022-08-05T04:08:35.926Z,91.29
2022-08-05T04:09:27.353Z,90.59
2022-08-05T04:10:27.704Z,90.39
2022-08-05T04:11:50.846Z,90.53
2022-08-05T04:12:27.322Z,90.69
2022-08-05T04:13:26.331Z,90.89
2022-08-05T04:14:29.994Z,90.79
2022-08-05T04:15:26.281Z,90.69
2022-08-05T04:16:32.253Z,89.59
2022-08-05T04:17:55.726Z,90.44
2022-08-05T04:18:27.262Z,90.73
2022-08-05T04:19:26.232Z,90.83
2022-08-05T04:20:26.221Z,91.09
2022-08-05T04:22:09.221Z,90.29
2022-08-05T04:22:27.217Z,89.73
2022-08-05T04:24:04.909Z,89.83
2022-08-05T04:24:27.705Z,88.83
2022-08-05T04:25:56.639Z,89.33
2022-08-05T04:26:27.133Z,89.83
2022-08-05T04:27:41.505Z,90.53
2022-08-05T04:28:30.697Z,91.03
2022-08-05T04:29:27.277Z,90.44
2022-08-05T04:30:26.420Z,89.64
2022-08-05T04:31:27.572Z,90.44
2022-08-05T04:32:31.282Z,89.53
2022-08-05T04:33:54.743Z,89.73
2022-08-05T04:34:33.643Z,90.23
2022-08-05T04:35:27.023Z,89.94
2022-08-05T04:36:44.960Z,90.63
2022-08-05T04:38:00.898Z,91.03
2022-08-05T04:38:39.787Z,91.24
2022-08-05T04:39:27.365Z,90.53
2022-08-05T04:40:25.974Z,90.53
2022-08-05T04:41:36.687Z,90.53
2022-08-05T04:42:26.933Z,90.33
2022-08-05T04:43:33.217Z,90.03
2022-08-05T04:44:30.059Z,89.94
2022-08-05T04:45:48.408Z,90.13
2022-08-05T04:46:27.936Z,90.33
2022-08-05T04:47:26.185Z,89.73
2022-08-05T04:48:27.287Z,89.94
2022-08-05T04:49:38.644Z,89.99
2022-08-05T04:50:37.158Z,89.99
2022-08-05T04:51:30.632Z,89.89
2022-08-05T04:52:27.449Z,89.59
2022-08-05T04:53:25.792Z,89.89
2022-08-05T04:54:25.782Z,89.89
2022-08-05T04:56:15.290Z,90.19
2022-08-05T04:56:32.980Z,89.69
2022-08-05T04:57:28.996Z,85.49
2022-08-05T04:58:25.711Z,84.79
2022-08-05T04:59:38.361Z,86.55
2022-08-05T05:00:26.692Z,84.55
2022-08-05T05:02:04.011Z,86.01
2022-08-05T05:02:36.432Z,85.51
2022-08-05T05:03:26.656Z,85.61
2022-08-05T05:04:26.652Z,85.91
2022-08-05T05:05:28.967Z,86.61
2022-08-05T05:06:36.550Z,86.81
2022-08-05T05:07:29.373Z,85.51
2022-08-05T05:08:30.410Z,85.41
2022-08-05T05:09:25.609Z,84.51
2022-08-05T05:10:25.574Z,84.11
2022-08-05T05:11:25.550Z,85.57
2022-08-05T05:12:27.440Z,85.47
2022-08-05T05:13:25.535Z,83.57
2022-08-05T05:14:27.863Z,83.93
2022-08-05T05:15:57.489Z,83.53
2022-08-05T05:16:30.385Z,83.63
2022-08-05T05:17:55.787Z,83.00
2022-08-05T05:18:28.317Z,82.59
2022-08-05T05:19:27.432Z,82.29
2022-08-05T05:20:28.451Z,82.26
2022-08-05T05:21:27.077Z,81.36
2022-08-05T05:22:26.107Z,80.96
2022-08-05T05:23:25.403Z,81.16
2022-08-05T05:24:35.795Z,81.16
2022-08-05T05:25:40.592Z,81.22
2022-08-05T05:26:28.525Z,80.92
2022-08-05T05:27:45.867Z,80.32
2022-08-05T05:28:26.310Z,80.12
2022-08-05T05:29:25.329Z,80.22
2022-08-05T05:30:29.226Z,80.62
2022-08-05T05:31:25.287Z,80.32
2022-08-05T05:32:25.269Z,81.32
2022-08-05T05:33:25.258Z,81.52
2022-08-05T05:34:26.715Z,82.21
2022-08-05T05:35:25.256Z,82.35
2022-08-05T05:36:25.209Z,82.06
2022-08-05T05:37:29.163Z,83.15
2022-08-05T05:38:27.229Z,82.56
2022-08-05T05:39:26.442Z,82.59
2022-08-05T05:40:26.251Z,82.50
2022-08-05T05:41:25.270Z,82.56
2022-08-05T05:42:26.130Z,83.69
2022-08-05T05:43:57.193Z,83.89
2022-08-05T05:44:37.794Z,84.63
2022-08-05T05:45:26.111Z,85.33
2022-08-05T05:46:25.087Z,85.97
2022-08-05T05:47:30.596Z,85.97
2022-08-05T05:48:27.733Z,86.57
2022-08-05T05:49:25.062Z,86.57
2022-08-05T05:50:25.020Z,86.51
2022-08-05T05:51:25.606Z,86.57
2022-08-05T05:52:28.746Z,85.67
2022-08-05T05:53:25.991Z,84.97
2022-08-05T05:54:49.875Z,86.03
2022-08-05T05:55:51.812Z,85.53
2022-08-05T05:56:32.271Z,84.23
2022-08-05T05:57:26.164Z,85.13
2022-08-05T05:58:32.046Z,85.63
2022-08-05T05:59:25.921Z,85.13
2022-08-05T06:00:27.794Z,84.33
2022-08-05T06:01:27.560Z,85.53
2022-08-05T06:02:37.433Z,85.72
2022-08-05T06:03:54.171Z,85.72
2022-08-05T06:04:25.934Z,85.83
2022-08-05T06:05:24.860Z,86.03
2022-08-05T06:06:24.800Z,85.23
2022-08-05T06:07:41.138Z,86.33
2022-08-05T06:08:32.253Z,84.83
2022-08-05T06:09:52.647Z,86.43
2022-08-05T06:10:25.773Z,86.52
2022-08-05T06:11:24.752Z,86.72
2022-08-05T06:12:24.732Z,86.82
2022-08-05T06:13:24.722Z,86.72
2022-08-05T06:14:24.692Z,87.82
2022-08-05T06:15:24.723Z,87.37
2022-08-05T06:16:29.706Z,86.57
2022-08-05T06:17:30.829Z,87.96
2022-08-05T06:18:31.021Z,87.57
2022-08-05T06:19:26.101Z,87.87
2022-08-05T06:20:25.663Z,87.66
2022-08-05T06:21:24.623Z,87.46
2022-08-05T06:22:25.669Z,87.96
2022-08-05T06:23:24.604Z,87.76
2022-08-05T06:24:27.186Z,87.46
2022-08-05T06:26:12.237Z,86.87
2022-08-05T06:26:25.555Z,87.73
2022-08-05T06:28:08.962Z,87.23
2022-08-05T06:28:28.509Z,86.22
2022-08-05T06:29:46.866Z,87.02
2022-08-05T06:30:25.496Z,86.52
2022-08-05T06:31:30.491Z,85.53
2022-08-05T06:32:29.265Z,85.28
2022-08-05T06:33:55.008Z,85.39
2022-08-05T06:34:27.763Z,84.79
2022-08-05T06:36:03.074Z,84.25
2022-08-05T06:36:25.822Z,84.25
2022-08-05T06:37:57.020Z,84.15
2022-08-05T06:38:35.980Z,84.15
2022-08-05T06:39:27.839Z,85.74
2022-08-05T06:40:27.672Z,85.35
2022-08-05T06:41:24.365Z,83.85
2022-08-05T06:42:24.338Z,83.81
2022-08-05T06:43:58.727Z,84.65
2022-08-05T06:44:25.312Z,84.65
2022-08-05T06:45:44.440Z,84.95
2022-08-05T06:46:29.700Z,84.15
2022-08-05T06:47:30.000Z,84.55
2022-08-05T06:48:53.550Z,85.41
2022-08-05T06:50:00.618Z,85.55
2022-08-05T06:50:25.249Z,85.44
2022-08-05T06:51:30.071Z,85.25
2022-08-05T06:52:38.164Z,85.74
2022-08-05T06:53:28.528Z,84.75
2022-08-05T06:54:25.847Z,85.90
2022-08-05T06:55:24.190Z,85.64
2022-08-05T06:56:26.403Z,85.94
2022-08-05T06:57:57.716Z,86.44
2022-08-05T06:58:29.980Z,85.35
2022-08-05T06:59:25.112Z,86.44
2022-08-05T07:00:24.993Z,84.65
2022-08-05T07:01:27.748Z,86.24
2022-08-05T07:02:25.074Z,85.35
2022-08-05T07:03:27.962Z,84.84
2022-08-05T07:04:25.078Z,86.15
2022-08-05T07:05:37.480Z,85.94
2022-08-05T07:06:25.025Z,85.88
2022-08-05T07:07:43.074Z,85.99
2022-08-05T07:08:25.174Z,86.79
2022-08-05T07:09:24.968Z,87.28
2022-08-05T07:10:23.983Z,86.38
2022-08-05T07:11:25.241Z,86.64
2022-08-05T07:12:23.943Z,86.64
2022-08-05T07:13:57.211Z,85.85
2022-08-05T07:14:30.052Z,85.44
2022-08-05T07:15:34.561Z,84.99
2022-08-05T07:17:59.793Z,85.69
2022-08-05T07:18:01.694Z,85.09
2022-08-05T07:18:29.324Z,86.08
2022-08-05T07:20:10.537Z,87.18
2022-08-05T07:20:33.831Z,86.88
2022-08-05T07:21:25.776Z,86.98
2022-08-05T07:22:28.233Z,86.19
2022-08-05T07:23:26.288Z,86.29
2022-08-05T07:24:23.795Z,87.08
2022-08-05T07:25:56.113Z,87.84
2022-08-05T07:26:24.911Z,87.24
2022-08-05T07:27:27.342Z,86.88
2022-08-05T07:28:23.736Z,87.08
2022-08-05T07:29:25.317Z,87.98
2022-08-05T07:30:32.077Z,87.88
2022-08-05T07:31:54.037Z,88.43
2022-08-05T07:32:26.316Z,87.64
2022-08-05T07:33:36.431Z,88.04
2022-08-05T07:34:28.609Z,88.54
2022-08-05T07:36:03.568Z,87.90
2022-08-05T07:36:24.933Z,88.70
2022-08-05T07:37:23.860Z,86.70
2022-08-05T07:38:32.071Z,85.80
2022-08-05T07:40:04.088Z,84.21
2022-08-05T07:40:32.093Z,83.77
2022-08-05T07:42:13.252Z,84.37
2022-08-05T07:42:34.075Z,83.67
2022-08-05T07:43:24.568Z,82.07
2022-08-05T07:44:23.588Z,80.58
2022-08-05T07:45:56.394Z,81.82
2022-08-05T07:46:25.980Z,82.42
2022-08-05T07:47:25.887Z,83.15
2022-08-05T07:49:00.552Z,84.65
2022-08-05T07:49:24.638Z,86.24
2022-08-05T07:50:28.788Z,84.61
2022-08-05T07:51:36.994Z,84.41
2022-08-05T07:52:24.415Z,83.91
2022-08-05T07:53:23.420Z,84.31
2022-08-05T07:54:26.521Z,84.07
2022-08-05T07:56:04.859Z,83.07
2022-08-05T07:56:59.970Z,83.87
2022-08-05T07:57:51.354Z,85.46
2022-08-05T07:58:58.644Z,84.86
2022-08-05T07:59:39.038Z,83.27
2022-08-05T08:00:24.341Z,82.97
2022-08-05T08:01:23.340Z,83.07
2022-08-05T08:02:26.848Z,81.94
2022-08-05T08:03:24.271Z,81.14
2022-08-05T08:04:38.076Z,81.44
2022-08-05T08:05:24.270Z,82.04
2022-08-05T08:06:23.221Z,81.94
2022-08-05T08:07:24.701Z,82.54
2022-08-05T08:08:23.212Z,82.34
2022-08-05T08:09:23.184Z,81.64
2022-08-05T08:10:23.529Z,81.94
2022-08-05T08:11:27.776Z,81.24
2022-08-05T08:12:35.082Z,80.84
2022-08-05T08:13:29.035Z,81.54
2022-08-05T08:14:24.117Z,81.84
2022-08-05T08:16:33.927Z,80.44
2022-08-05T08:16:49.828Z,80.68
2022-08-05T08:17:24.435Z,81.68
2022-08-05T08:18:23.063Z,82.57
2022-08-05T08:20:22.334Z,81.58
2022-08-05T08:20:59.872Z,81.28
2022-08-05T08:21:24.055Z,81.58
2022-08-05T08:22:23.008Z,81.48
2022-08-05T08:24:03.013Z,80.98
2022-08-05T08:24:24.017Z,81.58
2022-08-05T08:25:27.006Z,82.64
2022-08-05T08:26:26.829Z,82.24
2022-08-05T08:27:24.099Z,82.73
2022-08-05T08:28:36.259Z,79.94
2022-08-05T08:30:03.842Z,79.85
2022-08-05T08:30:32.446Z,80.24
2022-08-05T08:31:25.104Z,80.15
2022-08-05T08:32:28.130Z,80.35
2022-08-05T08:33:24.145Z,78.75
2022-08-05T08:34:30.341Z,79.15
2022-08-05T08:35:26.694Z,79.55
2022-08-05T08:36:38.305Z,79.25
2022-08-05T08:37:28.000Z,78.95
2022-08-05T08:38:32.132Z,79.15
2022-08-05T08:39:23.952Z,79.94
2022-08-05T08:40:22.797Z,80.05
2022-08-05T08:41:26.011Z,79.35
2022-08-05T08:42:34.318Z,78.75
2022-08-05T08:45:17.759Z,79.15
2022-08-05T08:45:18.980Z,78.25
2022-08-05T08:45:27.194Z,79.05
2022-08-05T08:46:23.718Z,79.15
2022-08-05T08:48:07.750Z,79.35
2022-08-05T08:49:02.474Z,79.85
2022-08-05T08:50:14.250Z,80.11
2022-08-05T08:50:52.633Z,80.54
2022-08-05T08:52:03.336Z,79.15
2022-08-05T08:52:24.130Z,80.44
2022-08-05T08:53:22.616Z,80.05
2022-08-05T08:54:22.647Z,80.30
2022-08-05T08:56:02.137Z,79.31
2022-08-05T08:56:23.581Z,78.72
2022-08-05T08:57:22.682Z,77.82
2022-08-05T08:58:36.976Z,78.31
2022-08-05T08:59:23.530Z,79.31
2022-08-05T09:00:22.537Z,79.97
2022-08-05T09:01:22.579Z,78.02
2022-08-05T09:02:24.193Z,77.72
2022-08-05T09:03:22.511Z,76.92
2022-08-05T09:04:22.454Z,77.22
2022-08-05T09:05:38.540Z,77.32
2022-08-05T09:06:27.839Z,78.02
2022-08-05T09:07:28.359Z,78.31
2022-08-05T09:08:27.333Z,78.58
2022-08-05T09:09:22.401Z,79.67
2022-08-05T09:10:22.413Z,77.09
2022-08-05T09:11:53.790Z,78.78
2022-08-05T09:12:30.124Z,77.58
2022-08-05T09:13:23.604Z,76.59
2022-08-05T09:14:59.091Z,76.79
2022-08-05T09:15:23.471Z,77.58
2022-08-05T09:16:22.323Z,77.64
2022-08-05T09:17:40.558Z,76.45
2022-08-05T09:18:23.314Z,77.45
2022-08-05T09:19:27.739Z,77.38
2022-08-05T09:20:37.397Z,77.19
2022-08-05T09:22:22.971Z,78.28
2022-08-05T09:22:30.793Z,76.98
2022-08-05T09:23:23.536Z,77.22
2022-08-05T09:24:22.173Z,77.12
2022-08-05T09:25:24.524Z,77.42
2022-08-05T09:26:23.165Z,78.81
2022-08-05T09:28:05.291Z,77.42
2022-08-05T09:28:23.161Z,76.92
2022-08-05T09:29:24.054Z,76.53
2022-08-05T09:30:23.302Z,77.02
2022-08-05T09:32:40.284Z,76.53
2022-08-05T09:32:42.787Z,76.13
2022-08-05T09:33:23.093Z,76.32
2022-08-05T09:34:23.054Z,76.79
2022-08-05T09:35:27.311Z,75.69
2022-08-05T09:36:27.612Z,75.89
2022-08-05T09:38:12.105Z,76.59
2022-08-05T09:38:27.322Z,76.68
2022-08-05T09:39:22.455Z,75.63
2022-08-05T09:40:22.029Z,75.93
2022-08-05T09:41:21.955Z,76.13
2022-08-05T09:42:24.309Z,74.77
2022-08-05T09:43:22.915Z,75.46
2022-08-05T09:44:21.926Z,76.46
2022-08-05T09:46:06.960Z,76.26
2022-08-05T09:46:27.949Z,76.46
2022-08-05T09:47:22.903Z,76.26
2022-08-05T09:48:22.019Z,76.76
2022-08-05T09:49:22.988Z,74.97
2022-08-05T09:50:38.253Z,75.76
2022-08-05T09:51:22.857Z,76.76
2022-08-05T09:52:22.025Z,76.36
2022-08-05T09:53:25.887Z,76.17
2022-08-05T09:54:29.374Z,75.96
2022-08-05T09:55:57.297Z,76.26
2022-08-05T09:56:22.829Z,77.06
2022-08-05T09:57:23.615Z,77.06
2022-08-05T09:58:21.751Z,76.56
2022-08-05T09:59:21.775Z,77.00
2022-08-05T10:00:21.870Z,76.50
2022-08-05T10:01:32.077Z,77.20
2022-08-05T10:02:22.977Z,75.90
2022-08-05T10:03:21.682Z,75.70
2022-08-05T10:04:29.307Z,76.10
2022-08-05T10:05:22.733Z,75.60
2022-08-05T10:06:21.697Z,75.50
2022-08-05T10:08:11.186Z,75.60
2022-08-05T10:08:37.479Z,75.10
2022-08-05T10:09:27.650Z,75.40
2022-08-05T10:10:28.260Z,75.90
2022-08-05T10:11:22.883Z,76.30
2022-08-05T10:12:31.570Z,76.30
2022-08-05T10:13:22.552Z,76.20
2022-08-05T10:14:21.636Z,75.10
2022-08-05T10:15:21.747Z,74.80
2022-08-05T10:16:21.544Z,75.74
2022-08-05T10:17:39.918Z,76.43
2022-08-05T10:18:22.482Z,76.04
2022-08-05T10:19:23.870Z,75.70
2022-08-05T10:20:22.488Z,75.44
2022-08-05T10:21:22.946Z,76.34
2022-08-05T10:22:29.743Z,77.29
2022-08-05T10:23:55.418Z,75.80
2022-08-05T10:24:24.980Z,75.20
2022-08-05T10:25:21.431Z,75.80
2022-08-05T10:26:24.406Z,75.31
2022-08-05T10:27:26.276Z,75.31
2022-08-05T10:28:29.688Z,75.31
2022-08-05T10:29:24.193Z,74.41
2022-08-05T10:31:19.891Z,74.80
2022-08-05T10:32:51.963Z,74.11
2022-08-05T10:32:53.997Z,73.91
2022-08-05T10:33:22.545Z,74.11
2022-08-05T10:34:25.580Z,74.11
2022-08-05T10:35:21.255Z,74.17
2022-08-05T10:36:23.559Z,73.71
2022-08-05T10:37:21.242Z,74.07
2022-08-05T10:38:21.245Z,74.77
2022-08-05T10:39:25.209Z,75.57
2022-08-05T10:40:27.827Z,72.81
2022-08-05T10:41:23.658Z,72.52
2022-08-05T10:42:32.477Z,73.65
2022-08-05T10:43:23.221Z,74.64
2022-08-05T10:44:22.148Z,75.67
2022-08-05T10:45:23.861Z,75.87
2022-08-05T10:46:23.916Z,76.37
2022-08-05T10:47:26.878Z,75.87
2022-08-05T10:48:31.321Z,75.07
2022-08-05T10:49:26.763Z,75.67
2022-08-05T10:50:36.918Z,75.87
2022-08-05T10:51:23.181Z,75.87
2022-08-05T10:52:22.149Z,75.21
2022-08-05T10:53:21.035Z,75.81
2022-08-05T10:54:28.702Z,75.74
2022-08-05T10:55:22.026Z,75.74
2022-08-05T10:56:25.386Z,76.04
2022-08-05T10:57:21.000Z,76.54
2022-08-05T10:58:21.004Z,76.34
2022-08-05T11:00:03.223Z,76.91
2022-08-05T11:00:22.831Z,74.81
2022-08-05T11:01:28.487Z,74.62
2022-08-05T11:02:38.021Z,74.32
2022-08-05T11:03:25.508Z,75.01
2022-08-05T11:04:21.437Z,74.02
2022-08-05T11:05:20.859Z,74.25
2022-08-05T11:06:20.910Z,74.55
2022-08-05T11:07:33.125Z,74.71
2022-08-05T11:08:36.803Z,73.91
2022-08-05T11:09:32.285Z,74.02
2022-08-05T11:10:21.851Z,74.02
2022-08-05T11:11:21.190Z,73.82
2022-08-05T11:12:20.942Z,73.68
2022-08-05T11:13:20.752Z,72.88
2022-08-05T11:14:28.693Z,73.28
2022-08-05T11:15:21.834Z,73.98
2022-08-05T11:16:20.710Z,74.64
2022-08-05T11:17:20.723Z,73.05
2022-08-05T11:18:21.683Z,72.05
2022-08-05T11:20:16.492Z,72.08
2022-08-05T11:20:22.229Z,72.88
2022-08-05T11:21:20.656Z,73.05
2022-08-05T11:22:20.673Z,72.35
2022-08-05T11:23:20.636Z,72.95
2022-08-05T11:24:30.368Z,71.85
2022-08-05T11:26:04.311Z,71.65
2022-08-05T11:26:28.439Z,72.65
2022-08-05T11:27:21.773Z,72.11
2022-08-05T11:28:20.552Z,72.11
2022-08-05T11:29:20.534Z,72.31
2022-08-05T11:30:20.544Z,71.12
2022-08-05T11:31:57.147Z,70.92
2022-08-05T11:32:21.523Z,70.42
2022-08-05T11:33:21.065Z,70.09
2022-08-05T11:34:22.778Z,70.09
2022-08-05T11:35:21.465Z,70.98
2022-08-05T11:36:34.662Z,69.96
2022-08-05T11:38:28.421Z,69.76
2022-08-05T11:38:30.622Z,68.76
2022-08-05T11:39:21.470Z,69.16
2022-08-05T11:40:21.396Z,69.66
2022-08-05T11:41:58.205Z,68.43
2022-08-05T11:42:21.367Z,69.03
2022-08-05T11:43:21.353Z,69.13
2022-08-05T11:44:31.197Z,69.13
2022-08-05T11:45:26.849Z,70.62
2022-08-05T11:46:32.900Z,68.93
2022-08-05T11:47:22.077Z,67.50
2022-08-05T11:48:21.277Z,68.40
2022-08-05T11:49:20.267Z,69.69
2022-08-05T11:50:20.267Z,68.20
2022-08-05T11:51:44.486Z,67.90
2022-08-05T11:52:22.979Z,68.86
2022-08-05T11:53:21.236Z,67.77
2022-08-05T11:54:20.298Z,67.07
2022-08-05T11:55:20.218Z,67.97
2022-08-05T11:56:20.208Z,67.47
2022-08-05T11:57:25.820Z,69.06
2022-08-05T11:58:21.378Z,69.26
2022-08-05T11:59:21.234Z,67.27
2022-08-05T12:00:20.139Z,66.48
2022-08-05T12:01:20.146Z,67.40
2022-08-05T12:02:23.985Z,67.11
2022-08-05T12:03:28.843Z,68.04
2022-08-05T12:04:21.081Z,68.33
2022-08-05T12:05:20.070Z,68.04
2022-08-05T12:06:20.056Z,67.77
2022-08-05T12:08:09.360Z,68.86
2022-08-05T12:08:21.031Z,67.50
2022-08-05T12:09:20.248Z,68.60
2022-08-05T12:10:20.001Z,68.90
2022-08-05T12:11:20.489Z,69.20
2022-08-05T12:12:20.120Z,70.39
2022-08-05T12:13:48.360Z,70.89
2022-08-05T12:14:21.002Z,69.39
2022-08-05T12:15:19.969Z,69.53
2022-08-05T12:16:26.936Z,70.03
2022-08-05T12:18:00.741Z,70.65
2022-08-05T12:18:24.330Z,71.05
2022-08-05T12:20:25.444Z,71.48
2022-08-05T12:20:28.849Z,71.59
2022-08-05T12:21:21.021Z,71.09
2022-08-05T12:22:20.099Z,71.29
2022-08-05T12:23:19.833Z,72.19
2022-08-05T12:24:19.831Z,72.28
2022-08-05T12:25:19.825Z,72.08
2022-08-05T12:26:19.834Z,70.39
2022-08-05T12:27:21.608Z,70.69
2022-08-05T12:28:20.765Z,71.19
2022-08-05T12:29:23.067Z,71.15
2022-08-05T12:30:19.760Z,69.79
2022-08-05T12:31:32.654Z,69.79
2022-08-05T12:32:20.735Z,69.99
2022-08-05T12:33:27.891Z,69.99
2022-08-05T12:34:23.507Z,70.79
2022-08-05T12:35:21.745Z,70.19
2022-08-05T12:36:19.701Z,70.19
2022-08-05T12:37:21.747Z,69.79
2022-08-05T12:38:22.282Z,70.53
2022-08-05T12:39:20.688Z,70.89
2022-08-05T12:40:26.351Z,70.39
2022-08-05T12:41:20.596Z,70.49
2022-08-05T12:42:20.605Z,69.69
2022-08-05T12:43:21.001Z,69.79
2022-08-05T12:44:32.801Z,69.96
2022-08-05T12:45:20.547Z,70.16
2022-08-05T12:46:22.439Z,69.13
2022-08-05T12:47:20.562Z,69.02
2022-08-05T12:48:27.374Z,69.53
2022-08-05T12:49:20.477Z,69.02
2022-08-05T12:50:20.478Z,69.32
2022-08-05T12:52:11.074Z,69.32
2022-08-05T12:52:25.261Z,69.73